sensor_id;sensor_type;location;lat;lon;timestamp;P1;durP1;ratioP1;P2;durP2;ratioP2
71104;SDS011;58760;48.716;8.962;2023-08-21T00:00:40;8.00;;;4.25;;
71104;SDS011;58760;48.716;8.962;2023-08-21T00:03:36;9.48;;;4.70;;
71104;SDS011;58760;48.716;8.962;2023-08-21T00:06:52;9.68;;;4.28;;
71104;SDS011;58760;48.716;8.962;2023-08-21T00:09:45;9.18;;;3.80;;
71104;SDS011;58760;48.716;8.962;2023-08-21T00:13:25;9.75;;;4.13;;
71104;SDS011;58760;48.716;8.962;2023-08-21T00:20:33;9.32;;;4.60;;
71104;SDS011;58760;48.716;8.962;2023-08-21T00:27:26;7.40;;;3.88;;
71104;SDS011;58760;48.716;8.962;2023-08-21T00:30:50;7.22;;;4.22;;
71104;SDS011;58760;48.716;8.962;2023-08-21T00:34:11;10.52;;;4.40;;
71104;SDS011;58760;48.716;8.962;2023-08-21T00:37:16;8.45;;;4.10;;
71104;SDS011;58760;48.716;8.962;2023-08-21T00:40:19;9.93;;;4.32;;
71104;SDS011;58760;48.716;8.962;2023-08-21T00:43:07;8.25;;;4.05;;
71104;SDS011;58760;48.716;8.962;2023-08-21T00:45:54;8.60;;;4.00;;
71104;SDS011;58760;48.716;8.962;2023-08-21T00:48:44;10.10;;;3.70;;
71104;SDS011;58760;48.716;8.962;2023-08-21T00:51:32;8.32;;;4.38;;
71104;SDS011;58760;48.716;8.962;2023-08-21T00:54:19;9.02;;;3.92;;
71104;SDS011;58760;48.716;8.962;2023-08-21T01:01:00;10.23;;;4.63;;
71104;SDS011;58760;48.716;8.962;2023-08-21T01:04:10;9.95;;;4.65;;
71104;SDS011;58760;48.716;8.962;2023-08-21T01:07:07;11.43;;;4.50;;
71104;SDS011;58760;48.716;8.962;2023-08-21T01:20:13;8.68;;;4.25;;
71104;SDS011;58760;48.716;8.962;2023-08-21T01:23:07;9.68;;;4.85;;
71104;SDS011;58760;48.716;8.962;2023-08-21T01:26:12;8.02;;;4.45;;
71104;SDS011;58760;48.716;8.962;2023-08-21T01:29:49;11.27;;;4.95;;
71104;SDS011;58760;48.716;8.962;2023-08-21T01:33:20;8.15;;;4.82;;
71104;SDS011;58760;48.716;8.962;2023-08-21T01:36:10;9.85;;;4.60;;
71104;SDS011;58760;48.716;8.962;2023-08-21T01:39:29;8.52;;;4.63;;
71104;SDS011;58760;48.716;8.962;2023-08-21T01:42:24;8.80;;;5.05;;
71104;SDS011;58760;48.716;8.962;2023-08-21T01:45:36;9.20;;;4.88;;
71104;SDS011;58760;48.716;8.962;2023-08-21T01:48:42;8.02;;;4.97;;
71104;SDS011;58760;48.716;8.962;2023-08-21T01:52:19;11.85;;;5.68;;
71104;SDS011;58760;48.716;8.962;2023-08-21T01:55:14;10.80;;;4.90;;
71104;SDS011;58760;48.716;8.962;2023-08-21T02:59:20;9.30;;;5.55;;
71104;SDS011;58760;48.716;8.962;2023-08-21T03:02:44;8.25;;;5.03;;
71104;SDS011;58760;48.716;8.962;2023-08-21T03:05:48;9.18;;;4.75;;
71104;SDS011;58760;48.716;8.962;2023-08-21T03:08:56;7.78;;;4.72;;
71104;SDS011;58760;48.716;8.962;2023-08-21T03:11:51;8.75;;;5.05;;
71104;SDS011;58760;48.716;8.962;2023-08-21T03:14:37;9.20;;;5.55;;
71104;SDS011;58760;48.716;8.962;2023-08-21T03:17:35;11.95;;;5.15;;
71104;SDS011;58760;48.716;8.962;2023-08-21T03:20:21;10.65;;;5.03;;
71104;SDS011;58760;48.716;8.962;2023-08-21T03:23:09;9.55;;;5.22;;
71104;SDS011;58760;48.716;8.962;2023-08-21T03:26:19;9.45;;;4.75;;
71104;SDS011;58760;48.716;8.962;2023-08-21T03:29:29;11.82;;;5.05;;
71104;SDS011;58760;48.716;8.962;2023-08-21T03:32:36;8.77;;;5.00;;
71104;SDS011;58760;48.716;8.962;2023-08-21T03:35:23;12.68;;;5.07;;
71104;SDS011;58760;48.716;8.962;2023-08-21T03:38:14;8.90;;;5.10;;
71104;SDS011;58760;48.716;8.962;2023-08-21T03:41:11;8.05;;;5.05;;
71104;SDS011;58760;48.716;8.962;2023-08-21T03:44:17;9.32;;;4.88;;
71104;SDS011;58760;48.716;8.962;2023-08-21T03:47:24;11.32;;;4.78;;
71104;SDS011;58760;48.716;8.962;2023-08-21T03:50:31;8.18;;;4.97;;
71104;SDS011;58760;48.716;8.962;2023-08-21T03:53:30;8.60;;;5.30;;
71104;SDS011;58760;48.716;8.962;2023-08-21T03:56:32;9.40;;;4.88;;
71104;SDS011;58760;48.716;8.962;2023-08-21T03:59:48;11.98;;;5.10;;
71104;SDS011;58760;48.716;8.962;2023-08-21T04:03:36;12.38;;;5.03;;
71104;SDS011;58760;48.716;8.962;2023-08-21T04:06:47;9.93;;;4.95;;
71104;SDS011;58760;48.716;8.962;2023-08-21T04:09:47;8.25;;;4.70;;
71104;SDS011;58760;48.716;8.962;2023-08-21T04:13:02;9.63;;;5.10;;
71104;SDS011;58760;48.716;8.962;2023-08-21T04:16:07;8.13;;;4.90;;
71104;SDS011;58760;48.716;8.962;2023-08-21T04:19:18;9.00;;;5.03;;
71104;SDS011;58760;48.716;8.962;2023-08-21T04:22:15;10.75;;;5.30;;
71104;SDS011;58760;48.716;8.962;2023-08-21T04:25:04;7.43;;;4.45;;
71104;SDS011;58760;48.716;8.962;2023-08-21T04:28:17;7.35;;;4.80;;
71104;SDS011;58760;48.716;8.962;2023-08-21T04:31:40;12.90;;;5.18;;
71104;SDS011;58760;48.716;8.962;2023-08-21T04:35:13;9.43;;;5.25;;
71104;SDS011;58760;48.716;8.962;2023-08-21T04:38:22;8.57;;;5.22;;
71104;SDS011;58760;48.716;8.962;2023-08-21T04:41:39;9.13;;;5.07;;
71104;SDS011;58760;48.716;8.962;2023-08-21T04:44:49;9.93;;;5.43;;
71104;SDS011;58760;48.716;8.962;2023-08-21T04:48:18;10.80;;;4.75;;
71104;SDS011;58760;48.716;8.962;2023-08-21T04:51:19;8.57;;;5.03;;
71104;SDS011;58760;48.716;8.962;2023-08-21T04:54:05;10.60;;;5.47;;
71104;SDS011;58760;48.716;8.962;2023-08-21T05:32:18;9.65;;;5.53;;
71104;SDS011;58760;48.716;8.962;2023-08-21T05:39:52;16.30;;;5.85;;
71104;SDS011;58760;48.716;8.962;2023-08-21T05:43:13;10.55;;;5.60;;
71104;SDS011;58760;48.716;8.962;2023-08-21T05:46:11;11.85;;;5.43;;
71104;SDS011;58760;48.716;8.962;2023-08-21T05:50:07;10.30;;;5.40;;
71104;SDS011;58760;48.716;8.962;2023-08-21T05:54:00;8.90;;;5.38;;
71104;SDS011;58760;48.716;8.962;2023-08-21T05:57:07;13.02;;;5.55;;
71104;SDS011;58760;48.716;8.962;2023-08-21T06:00:18;9.95;;;5.60;;
71104;SDS011;58760;48.716;8.962;2023-08-21T06:07:48;8.93;;;5.85;;
71104;SDS011;58760;48.716;8.962;2023-08-21T06:10:36;7.80;;;5.50;;
71104;SDS011;58760;48.716;8.962;2023-08-21T06:13:52;9.55;;;6.03;;
71104;SDS011;58760;48.716;8.962;2023-08-21T06:17:42;9.20;;;5.88;;
71104;SDS011;58760;48.716;8.962;2023-08-21T06:21:00;9.95;;;5.60;;
71104;SDS011;58760;48.716;8.962;2023-08-21T06:24:04;13.00;;;5.90;;
71104;SDS011;58760;48.716;8.962;2023-08-21T06:27:15;10.65;;;5.43;;
71104;SDS011;58760;48.716;8.962;2023-08-21T06:30:13;9.43;;;5.88;;
71104;SDS011;58760;48.716;8.962;2023-08-21T06:33:15;9.35;;;5.30;;
71104;SDS011;58760;48.716;8.962;2023-08-21T06:36:08;10.95;;;5.78;;
71104;SDS011;58760;48.716;8.962;2023-08-21T06:39:08;9.70;;;6.03;;
71104;SDS011;58760;48.716;8.962;2023-08-21T06:42:27;9.30;;;5.90;;
71104;SDS011;58760;48.716;8.962;2023-08-21T06:45:17;9.07;;;5.95;;
71104;SDS011;58760;48.716;8.962;2023-08-21T06:48:43;14.52;;;5.70;;
71104;SDS011;58760;48.716;8.962;2023-08-21T06:52:29;10.25;;;5.47;;
71104;SDS011;58760;48.716;8.962;2023-08-21T06:56:16;11.75;;;5.10;;
71104;SDS011;58760;48.716;8.962;2023-08-21T06:59:05;7.63;;;4.78;;
71104;SDS011;58760;48.716;8.962;2023-08-21T07:06:03;9.25;;;5.20;;
71104;SDS011;58760;48.716;8.962;2023-08-21T07:09:43;9.95;;;4.93;;
71104;SDS011;58760;48.716;8.962;2023-08-21T07:12:55;9.15;;;5.18;;
71104;SDS011;58760;48.716;8.962;2023-08-21T07:19:50;11.23;;;4.88;;
71104;SDS011;58760;48.716;8.962;2023-08-21T07:23:15;8.65;;;4.80;;
71104;SDS011;58760;48.716;8.962;2023-08-21T07:26:43;9.18;;;4.70;;
71104;SDS011;58760;48.716;8.962;2023-08-21T07:29:42;10.80;;;5.03;;
71104;SDS011;58760;48.716;8.962;2023-08-21T07:36:02;9.75;;;4.45;;
71104;SDS011;58760;48.716;8.962;2023-08-21T07:38:54;10.27;;;5.15;;
71104;SDS011;58760;48.716;8.962;2023-08-21T07:42:10;11.23;;;4.97;;
71104;SDS011;58760;48.716;8.962;2023-08-21T07:49:33;9.65;;;4.97;;
71104;SDS011;58760;48.716;8.962;2023-08-21T07:52:55;11.02;;;4.95;;
71104;SDS011;58760;48.716;8.962;2023-08-21T07:56:28;16.00;;;4.93;;
71104;SDS011;58760;48.716;8.962;2023-08-21T08:00:06;10.35;;;4.75;;
71104;SDS011;58760;48.716;8.962;2023-08-21T08:03:33;11.43;;;4.90;;
71104;SDS011;58760;48.716;8.962;2023-08-21T08:07:02;15.88;;;4.50;;
71104;SDS011;58760;48.716;8.962;2023-08-21T08:10:13;16.80;;;4.55;;
71104;SDS011;58760;48.716;8.962;2023-08-21T08:13:11;10.90;;;4.30;;
71104;SDS011;58760;48.716;8.962;2023-08-21T08:20:02;8.85;;;4.65;;
71104;SDS011;58760;48.716;8.962;2023-08-21T08:23:32;6.93;;;4.28;;
71104;SDS011;58760;48.716;8.962;2023-08-21T08:30:33;12.55;;;4.70;;
71104;SDS011;58760;48.716;8.962;2023-08-21T08:34:04;9.70;;;4.10;;
71104;SDS011;58760;48.716;8.962;2023-08-21T08:37:17;10.10;;;4.68;;
71104;SDS011;58760;48.716;8.962;2023-08-21T08:51:08;11.15;;;4.60;;
71104;SDS011;58760;48.716;8.962;2023-08-21T08:54:42;12.05;;;3.97;;
71104;SDS011;58760;48.716;8.962;2023-08-21T08:58:26;8.10;;;4.28;;
71104;SDS011;58760;48.716;8.962;2023-08-21T09:01:29;9.18;;;4.60;;
71104;SDS011;58760;48.716;8.962;2023-08-21T09:05:05;10.77;;;4.03;;
71104;SDS011;58760;48.716;8.962;2023-08-21T09:12:23;7.90;;;4.10;;
71104;SDS011;58760;48.716;8.962;2023-08-21T09:19:07;8.23;;;4.18;;
71104;SDS011;58760;48.716;8.962;2023-08-21T09:22:13;10.20;;;4.03;;
71104;SDS011;58760;48.716;8.962;2023-08-21T09:26:19;7.47;;;3.95;;
71104;SDS011;58760;48.716;8.962;2023-08-21T09:29:41;9.82;;;3.92;;
71104;SDS011;58760;48.716;8.962;2023-08-21T09:33:26;7.63;;;4.15;;
71104;SDS011;58760;48.716;8.962;2023-08-21T10:42:37;11.63;;;4.38;;
71104;SDS011;58760;48.716;8.962;2023-08-21T10:45:40;11.95;;;4.40;;
71104;SDS011;58760;48.716;8.962;2023-08-21T10:49:14;10.77;;;4.00;;
71104;SDS011;58760;48.716;8.962;2023-08-21T10:52:23;11.43;;;3.90;;
71104;SDS011;58760;48.716;8.962;2023-08-21T10:56:16;6.53;;;3.60;;
71104;SDS011;58760;48.716;8.962;2023-08-21T11:17:24;7.97;;;4.25;;
71104;SDS011;58760;48.716;8.962;2023-08-21T11:21:25;8.95;;;4.68;;
71104;SDS011;58760;48.716;8.962;2023-08-21T11:34:33;8.82;;;4.15;;
71104;SDS011;58760;48.716;8.962;2023-08-21T11:37:23;12.65;;;4.20;;
71104;SDS011;58760;48.716;8.962;2023-08-21T11:44:30;9.70;;;3.75;;
71104;SDS011;58760;48.716;8.962;2023-08-21T11:48:19;9.90;;;4.00;;
71104;SDS011;58760;48.716;8.962;2023-08-21T11:51:40;8.38;;;3.83;;
71104;SDS011;58760;48.716;8.962;2023-08-21T11:54:59;9.18;;;4.30;;
71104;SDS011;58760;48.716;8.962;2023-08-21T11:58:46;10.55;;;3.60;;
71104;SDS011;58760;48.716;8.962;2023-08-21T12:06:09;8.80;;;3.65;;
71104;SDS011;58760;48.716;8.962;2023-08-21T12:13:19;7.95;;;3.60;;
71104;SDS011;58760;48.716;8.962;2023-08-21T12:16:22;9.75;;;3.95;;
71104;SDS011;58760;48.716;8.962;2023-08-21T12:19:23;8.10;;;3.90;;
71104;SDS011;58760;48.716;8.962;2023-08-21T12:22:17;9.95;;;3.90;;
71104;SDS011;58760;48.716;8.962;2023-08-21T12:25:16;10.25;;;3.60;;
71104;SDS011;58760;48.716;8.962;2023-08-21T12:28:28;9.60;;;3.85;;
71104;SDS011;58760;48.716;8.962;2023-08-21T12:35:03;8.00;;;3.50;;
71104;SDS011;58760;48.716;8.962;2023-08-21T12:38:09;9.45;;;3.88;;
71104;SDS011;58760;48.716;8.962;2023-08-21T12:44:27;8.23;;;3.85;;
71104;SDS011;58760;48.716;8.962;2023-08-21T12:47:44;7.30;;;3.63;;
71104;SDS011;58760;48.716;8.962;2023-08-21T12:50:40;12.95;;;3.50;;
71104;SDS011;58760;48.716;8.962;2023-08-21T12:53:54;11.02;;;3.20;;
71104;SDS011;58760;48.716;8.962;2023-08-21T12:57:13;8.60;;;3.72;;
71104;SDS011;58760;48.716;8.962;2023-08-21T13:00:22;9.10;;;3.42;;
71104;SDS011;58760;48.716;8.962;2023-08-21T13:07:41;10.35;;;3.45;;
71104;SDS011;58760;48.716;8.962;2023-08-21T13:11:15;7.40;;;3.63;;
71104;SDS011;58760;48.716;8.962;2023-08-21T13:17:36;10.23;;;3.63;;
71104;SDS011;58760;48.716;8.962;2023-08-21T13:20:58;8.18;;;3.63;;
71104;SDS011;58760;48.716;8.962;2023-08-21T13:28:07;6.60;;;3.90;;
71104;SDS011;58760;48.716;8.962;2023-08-21T13:34:40;7.72;;;3.38;;
71104;SDS011;58760;48.716;8.962;2023-08-21T13:37:53;10.00;;;3.72;;
71104;SDS011;58760;48.716;8.962;2023-08-21T13:41:15;12.65;;;4.15;;
71104;SDS011;58760;48.716;8.962;2023-08-21T13:44:39;13.57;;;4.03;;
71104;SDS011;58760;48.716;8.962;2023-08-21T13:47:39;9.98;;;3.50;;
71104;SDS011;58760;48.716;8.962;2023-08-21T13:51:16;9.10;;;3.50;;
71104;SDS011;58760;48.716;8.962;2023-08-21T13:57:38;8.00;;;3.75;;
71104;SDS011;58760;48.716;8.962;2023-08-21T14:07:44;9.20;;;3.60;;
71104;SDS011;58760;48.716;8.962;2023-08-21T14:14:45;9.70;;;3.70;;
71104;SDS011;58760;48.716;8.962;2023-08-21T14:18:17;8.68;;;3.85;;
71104;SDS011;58760;48.716;8.962;2023-08-21T14:24:38;8.25;;;3.30;;
71104;SDS011;58760;48.716;8.962;2023-08-21T14:27:24;8.05;;;3.40;;
71104;SDS011;58760;48.716;8.962;2023-08-21T14:33:46;8.93;;;3.58;;
71104;SDS011;58760;48.716;8.962;2023-08-21T14:37:22;11.35;;;3.65;;
71104;SDS011;58760;48.716;8.962;2023-08-21T14:47:54;9.57;;;3.50;;
71104;SDS011;58760;48.716;8.962;2023-08-21T14:51:32;9.68;;;3.30;;
71104;SDS011;58760;48.716;8.962;2023-08-21T14:58:44;9.98;;;3.70;;
71104;SDS011;58760;48.716;8.962;2023-08-21T15:01:45;10.23;;;3.50;;
71104;SDS011;58760;48.716;8.962;2023-08-21T15:08:22;11.45;;;3.92;;
71104;SDS011;58760;48.716;8.962;2023-08-21T15:14:42;8.07;;;3.50;;
71104;SDS011;58760;48.716;8.962;2023-08-21T15:17:50;13.45;;;4.10;;
71104;SDS011;58760;48.716;8.962;2023-08-21T15:20:51;10.48;;;3.33;;
71104;SDS011;58760;48.716;8.962;2023-08-21T15:24:34;15.18;;;3.67;;
71104;SDS011;58760;48.716;8.962;2023-08-21T15:27:54;7.75;;;3.35;;
71104;SDS011;58760;48.716;8.962;2023-08-21T15:34:46;12.13;;;3.30;;
71104;SDS011;58760;48.716;8.962;2023-08-21T15:38:15;14.82;;;3.53;;
71104;SDS011;58760;48.716;8.962;2023-08-21T15:41:27;16.42;;;3.97;;
71104;SDS011;58760;48.716;8.962;2023-08-21T15:48:10;10.27;;;3.78;;
71104;SDS011;58760;48.716;8.962;2023-08-21T15:51:27;10.90;;;3.20;;
71104;SDS011;58760;48.716;8.962;2023-08-21T16:05:53;8.75;;;3.58;;
71104;SDS011;58760;48.716;8.962;2023-08-21T16:12:03;10.77;;;4.30;;
71104;SDS011;58760;48.716;8.962;2023-08-21T16:15:41;9.55;;;3.90;;
71104;SDS011;58760;48.716;8.962;2023-08-21T16:18:57;8.20;;;3.80;;
71104;SDS011;58760;48.716;8.962;2023-08-21T16:22:00;10.63;;;3.70;;
71104;SDS011;58760;48.716;8.962;2023-08-21T16:25:16;8.10;;;3.83;;
71104;SDS011;58760;48.716;8.962;2023-08-21T16:28:18;8.98;;;4.20;;
71104;SDS011;58760;48.716;8.962;2023-08-21T16:35:02;13.25;;;3.85;;
71104;SDS011;58760;48.716;8.962;2023-08-21T16:38:18;7.40;;;3.55;;
71104;SDS011;58760;48.716;8.962;2023-08-21T16:41:39;8.18;;;3.95;;
71104;SDS011;58760;48.716;8.962;2023-08-21T16:45:17;8.90;;;4.10;;
71104;SDS011;58760;48.716;8.962;2023-08-21T16:48:19;9.25;;;3.67;;
71104;SDS011;58760;48.716;8.962;2023-08-21T16:51:28;15.30;;;4.05;;
71104;SDS011;58760;48.716;8.962;2023-08-21T16:54:53;9.27;;;3.97;;
71104;SDS011;58760;48.716;8.962;2023-08-21T16:58:27;13.10;;;3.78;;
71104;SDS011;58760;48.716;8.962;2023-08-21T17:19:27;10.82;;;4.00;;
71104;SDS011;58760;48.716;8.962;2023-08-21T17:22:52;11.82;;;4.15;;
71104;SDS011;58760;48.716;8.962;2023-08-21T17:26:25;6.40;;;3.88;;
71104;SDS011;58760;48.716;8.962;2023-08-21T17:29:29;10.07;;;3.75;;
71104;SDS011;58760;48.716;8.962;2023-08-21T17:36:27;7.85;;;3.53;;
71104;SDS011;58760;48.716;8.962;2023-08-21T17:40:11;7.70;;;3.80;;
71104;SDS011;58760;48.716;8.962;2023-08-21T17:43:47;11.32;;;3.58;;
71104;SDS011;58760;48.716;8.962;2023-08-21T17:51:31;10.20;;;4.35;;
71104;SDS011;58760;48.716;8.962;2023-08-21T17:54:42;7.93;;;3.85;;
71104;SDS011;58760;48.716;8.962;2023-08-21T17:57:46;10.35;;;4.70;;
71104;SDS011;58760;48.716;8.962;2023-08-21T18:00:48;6.57;;;3.45;;
71104;SDS011;58760;48.716;8.962;2023-08-21T18:03:51;9.57;;;4.00;;
71104;SDS011;58760;48.716;8.962;2023-08-21T18:07:41;8.73;;;3.88;;
71104;SDS011;58760;48.716;8.962;2023-08-21T18:11:26;10.32;;;3.90;;
71104;SDS011;58760;48.716;8.962;2023-08-21T18:14:39;14.85;;;3.75;;
71104;SDS011;58760;48.716;8.962;2023-08-21T18:18:00;7.30;;;3.58;;
71104;SDS011;58760;48.716;8.962;2023-08-21T18:27:27;8.77;;;4.03;;
71104;SDS011;58760;48.716;8.962;2023-08-21T18:30:18;8.40;;;3.42;;
71104;SDS011;58760;48.716;8.962;2023-08-21T18:33:19;9.10;;;3.42;;
71104;SDS011;58760;48.716;8.962;2023-08-21T18:36:46;8.07;;;3.53;;
71104;SDS011;58760;48.716;8.962;2023-08-21T18:40:28;5.68;;;3.63;;
71104;SDS011;58760;48.716;8.962;2023-08-21T18:44:01;8.27;;;3.75;;
71104;SDS011;58760;48.716;8.962;2023-08-21T18:51:37;7.63;;;3.72;;
71104;SDS011;58760;48.716;8.962;2023-08-21T18:55:16;9.63;;;4.28;;
71104;SDS011;58760;48.716;8.962;2023-08-21T18:58:41;7.88;;;3.72;;
71104;SDS011;58760;48.716;8.962;2023-08-21T19:01:58;9.32;;;3.42;;
71104;SDS011;58760;48.716;8.962;2023-08-21T19:05:40;11.95;;;4.28;;
71104;SDS011;58760;48.716;8.962;2023-08-21T19:08:40;9.65;;;4.05;;
71104;SDS011;58760;48.716;8.962;2023-08-21T19:11:44;7.97;;;3.80;;
71104;SDS011;58760;48.716;8.962;2023-08-21T19:15:04;9.82;;;4.25;;
71104;SDS011;58760;48.716;8.962;2023-08-21T19:18:08;9.23;;;4.40;;
71104;SDS011;58760;48.716;8.962;2023-08-21T19:21:05;10.50;;;4.03;;
71104;SDS011;58760;48.716;8.962;2023-08-21T19:24:39;9.85;;;4.05;;
71104;SDS011;58760;48.716;8.962;2023-08-21T19:27:43;12.50;;;3.85;;
71104;SDS011;58760;48.716;8.962;2023-08-21T19:30:38;10.07;;;4.72;;
71104;SDS011;58760;48.716;8.962;2023-08-21T19:37:36;13.80;;;4.70;;
71104;SDS011;58760;48.716;8.962;2023-08-21T19:41:02;7.97;;;4.28;;
71104;SDS011;58760;48.716;8.962;2023-08-21T19:44:31;12.18;;;4.25;;
71104;SDS011;58760;48.716;8.962;2023-08-21T19:47:50;10.30;;;4.22;;
71104;SDS011;58760;48.716;8.962;2023-08-21T19:50:55;10.93;;;4.10;;
71104;SDS011;58760;48.716;8.962;2023-08-21T20:02:01;13.20;;;4.00;;
71104;SDS011;58760;48.716;8.962;2023-08-21T20:06:00;8.00;;;3.83;;
71104;SDS011;58760;48.716;8.962;2023-08-21T20:09:47;9.25;;;4.35;;
71104;SDS011;58760;48.716;8.962;2023-08-21T20:13:29;8.43;;;4.50;;
71104;SDS011;58760;48.716;8.962;2023-08-21T20:17:02;8.63;;;4.45;;
71104;SDS011;58760;48.716;8.962;2023-08-21T20:20:53;9.10;;;4.40;;
71104;SDS011;58760;48.716;8.962;2023-08-21T20:23:54;11.18;;;5.28;;
71104;SDS011;58760;48.716;8.962;2023-08-21T20:26:59;9.63;;;4.90;;
71104;SDS011;58760;48.716;8.962;2023-08-21T20:30:13;8.35;;;4.47;;
71104;SDS011;58760;48.716;8.962;2023-08-21T20:33:12;10.88;;;4.78;;
71104;SDS011;58760;48.716;8.962;2023-08-21T20:36:24;6.95;;;3.80;;
71104;SDS011;58760;48.716;8.962;2023-08-21T20:39:24;12.48;;;4.82;;
71104;SDS011;58760;48.716;8.962;2023-08-21T20:49:36;8.70;;;4.78;;
71104;SDS011;58760;48.716;8.962;2023-08-21T20:52:42;9.48;;;4.53;;
71104;SDS011;58760;48.716;8.962;2023-08-21T20:55:50;8.30;;;4.72;;
71104;SDS011;58760;48.716;8.962;2023-08-21T20:59:10;11.80;;;4.57;;
71104;SDS011;58760;48.716;8.962;2023-08-21T21:06:19;8.25;;;4.30;;
71104;SDS011;58760;48.716;8.962;2023-08-21T21:09:06;9.52;;;5.22;;
71104;SDS011;58760;48.716;8.962;2023-08-21T21:11:54;10.00;;;5.80;;
71104;SDS011;58760;48.716;8.962;2023-08-21T21:14:42;8.43;;;5.07;;
71104;SDS011;58760;48.716;8.962;2023-08-21T21:18:09;9.60;;;4.75;;
71104;SDS011;58760;48.716;8.962;2023-08-21T21:20:56;10.20;;;5.55;;
71104;SDS011;58760;48.716;8.962;2023-08-21T21:23:53;10.32;;;5.70;;
71104;SDS011;58760;48.716;8.962;2023-08-21T21:27:26;9.20;;;4.93;;
71104;SDS011;58760;48.716;8.962;2023-08-21T21:34:19;8.90;;;4.78;;
71104;SDS011;58760;48.716;8.962;2023-08-21T21:37:25;11.25;;;5.05;;
71104;SDS011;58760;48.716;8.962;2023-08-21T21:43:16;10.88;;;4.90;;
71104;SDS011;58760;48.716;8.962;2023-08-21T21:46:11;12.10;;;5.13;;
71104;SDS011;58760;48.716;8.962;2023-08-21T21:49:33;8.48;;;4.97;;
71104;SDS011;58760;48.716;8.962;2023-08-21T21:53:07;11.00;;;5.50;;
71104;SDS011;58760;48.716;8.962;2023-08-21T21:56:05;8.82;;;5.43;;
71104;SDS011;58760;48.716;8.962;2023-08-21T21:58:56;9.70;;;5.25;;
71104;SDS011;58760;48.716;8.962;2023-08-21T22:01:56;11.02;;;4.93;;
71104;SDS011;58760;48.716;8.962;2023-08-21T22:04:50;9.52;;;5.00;;
71104;SDS011;58760;48.716;8.962;2023-08-21T22:08:15;11.77;;;4.97;;
71104;SDS011;58760;48.716;8.962;2023-08-21T22:11:50;16.33;;;6.05;;
71104;SDS011;58760;48.716;8.962;2023-08-21T22:14:49;8.43;;;4.80;;
71104;SDS011;58760;48.716;8.962;2023-08-21T22:17:50;9.02;;;5.10;;
71104;SDS011;58760;48.716;8.962;2023-08-21T22:28:15;8.43;;;5.00;;
71104;SDS011;58760;48.716;8.962;2023-08-21T22:31:06;10.13;;;5.30;;
71104;SDS011;58760;48.716;8.962;2023-08-21T22:37:52;10.43;;;5.53;;
71104;SDS011;58760;48.716;8.962;2023-08-21T22:47:54;9.80;;;5.20;;
71104;SDS011;58760;48.716;8.962;2023-08-21T22:54:32;10.15;;;5.97;;
71104;SDS011;58760;48.716;8.962;2023-08-21T22:57:47;8.32;;;5.13;;
71104;SDS011;58760;48.716;8.962;2023-08-21T23:01:00;11.32;;;5.68;;
71104;SDS011;58760;48.716;8.962;2023-08-21T23:15:42;9.23;;;4.93;;
71104;SDS011;58760;48.716;8.962;2023-08-21T23:19:46;11.35;;;4.90;;
71104;SDS011;58760;48.716;8.962;2023-08-21T23:27:21;9.95;;;5.50;;
71104;SDS011;58760;48.716;8.962;2023-08-21T23:30:23;7.93;;;4.88;;
71104;SDS011;58760;48.716;8.962;2023-08-21T23:33:41;10.52;;;5.93;;
71104;SDS011;58760;48.716;8.962;2023-08-21T23:37:04;8.85;;;5.28;;
71104;SDS011;58760;48.716;8.962;2023-08-21T23:40:18;9.15;;;5.30;;
71104;SDS011;58760;48.716;8.962;2023-08-21T23:43:10;11.63;;;5.78;;
71104;SDS011;58760;48.716;8.962;2023-08-21T23:46:16;20.83;;;6.20;;
71104;SDS011;58760;48.716;8.962;2023-08-21T23:49:22;13.48;;;5.75;;
71104;SDS011;58760;48.716;8.962;2023-08-21T23:52:13;9.57;;;5.47;;
71104;SDS011;58760;48.716;8.962;2023-08-21T23:55:37;10.88;;;5.43;;
71104;SDS011;58760;48.716;8.962;2023-08-21T23:58:34;9.68;;;5.45;;
